createdAt,value
2023-05-14T00:01:41.847Z,82.26
2023-05-14T00:04:08.344Z,82.51
2023-05-14T00:06:34.798Z,82.83
2023-05-14T00:09:01.251Z,82.90
2023-05-14T00:11:27.727Z,83.19
2023-05-14T00:13:54.219Z,83.53
2023-05-14T00:16:20.707Z,83.28
2023-05-14T00:18:47.299Z,83.35
2023-05-14T00:21:13.897Z,83.86
2023-05-14T00:23:40.491Z,84.24
2023-05-14T00:26:06.947Z,84.93
2023-05-14T00:28:33.510Z,85.05
2023-05-14T00:31:00.419Z,84.75
2023-05-14T00:33:26.995Z,85.06
2023-05-14T00:35:53.493Z,85.29
2023-05-14T00:38:19.971Z,85.12
2023-05-14T00:40:51.225Z,85.72
2023-05-14T00:43:19.486Z,85.72
2023-05-14T00:45:46.241Z,85.97
2023-05-14T00:48:13.502Z,86.64
2023-05-14T00:50:40.078Z,86.76
2023-05-14T00:53:10.260Z,86.44
2023-05-14T00:55:38.217Z,86.78
2023-05-14T00:58:09.282Z,86.71
2023-05-14T01:00:36.963Z,87.51
2023-05-14T01:03:04.538Z,87.20
2023-05-14T01:05:43.721Z,87.45
2023-05-14T01:08:50.751Z,87.35
2023-05-14T01:11:29.190Z,86.77
2023-05-14T01:14:19.570Z,87.71
2023-05-14T01:16:47.658Z,87.49
2023-05-14T01:19:33.465Z,88.39
2023-05-14T01:22:00.002Z,88.32
2023-05-14T01:24:26.523Z,88.72
2023-05-14T01:26:57.066Z,89.19
2023-05-14T01:29:26.637Z,89.48
2023-05-14T01:31:57.390Z,89.94
2023-05-14T01:34:28.288Z,89.93
2023-05-14T01:36:56.905Z,89.96
2023-05-14T01:39:24.992Z,89.69
2023-05-14T01:41:52.669Z,89.70
2023-05-14T01:44:19.588Z,90.79
2023-05-14T01:46:46.098Z,90.73
2023-05-14T01:49:12.635Z,90.68
2023-05-14T01:51:39.242Z,90.03
2023-05-14T01:54:05.834Z,90.28
2023-05-14T01:56:32.316Z,90.66
2023-05-14T01:58:58.777Z,90.77
2023-05-14T02:01:26.222Z,91.09
2023-05-14T02:03:52.903Z,91.19
2023-05-14T02:06:19.582Z,91.23
2023-05-14T02:08:46.083Z,91.45
2023-05-14T02:11:12.626Z,91.24
2023-05-14T02:13:39.093Z,91.46
2023-05-14T02:16:06.153Z,92.49
2023-05-14T02:18:32.720Z,92.51
2023-05-14T02:20:59.326Z,92.05
2023-05-14T02:23:37.771Z,92.10
2023-05-14T02:26:08.453Z,92.48
2023-05-14T02:28:34.907Z,92.55
2023-05-14T02:31:01.569Z,92.21
2023-05-14T02:33:28.569Z,92.30
2023-05-14T02:35:55.129Z,92.02
2023-05-14T02:38:22.458Z,91.84
2023-05-14T02:40:48.969Z,93.00
2023-05-14T02:43:15.404Z,92.88
2023-05-14T02:45:41.884Z,92.70
2023-05-14T02:48:08.604Z,93.69
2023-05-14T02:50:35.334Z,93.34
2023-05-14T02:53:01.918Z,93.12
2023-05-14T02:55:28.492Z,93.16
2023-05-14T02:57:55.009Z,93.31
2023-05-14T03:00:21.953Z,93.05
2023-05-14T03:02:49.211Z,93.28
2023-05-14T03:05:16.631Z,93.38
2023-05-14T03:07:43.091Z,93.28
2023-05-14T03:10:09.927Z,93.02
2023-05-14T03:12:36.416Z,93.32
2023-05-14T03:15:02.966Z,93.56
2023-05-14T03:17:29.532Z,93.11
2023-05-14T03:19:55.970Z,93.48
2023-05-14T03:22:22.505Z,93.12
2023-05-14T03:24:48.976Z,93.44
2023-05-14T03:27:15.533Z,93.59
2023-05-14T03:29:42.001Z,93.89
2023-05-14T03:32:08.605Z,93.70
2023-05-14T03:34:35.203Z,93.94
2023-05-14T03:37:01.643Z,94.00
2023-05-14T03:39:28.083Z,94.63
2023-05-14T03:41:56.988Z,94.37
2023-05-14T03:44:23.495Z,94.15
2023-05-14T03:46:49.965Z,94.62
2023-05-14T03:49:16.426Z,94.59
2023-05-14T03:51:42.985Z,94.92
2023-05-14T03:54:09.790Z,95.04
2023-05-14T03:56:36.741Z,95.33
2023-05-14T03:59:03.208Z,94.95
2023-05-14T04:01:29.726Z,95.39
2023-05-14T04:03:56.207Z,95.96
2023-05-14T04:06:22.723Z,96.30
2023-05-14T04:08:49.239Z,95.78
2023-05-14T04:11:15.673Z,96.30
2023-05-14T04:13:42.196Z,96.27
2023-05-14T04:16:08.710Z,96.25
2023-05-14T04:18:35.763Z,96.28
2023-05-14T04:21:02.972Z,96.69
2023-05-14T04:23:31.714Z,96.73
2023-05-14T04:25:58.862Z,96.68
2023-05-14T04:28:25.657Z,96.35
2023-05-14T04:30:52.465Z,96.38
2023-05-14T04:33:18.892Z,96.34
2023-05-14T04:35:45.959Z,96.36
2023-05-14T04:38:14.180Z,96.16
2023-05-14T04:40:44.203Z,96.81
2023-05-14T04:43:10.865Z,96.73
2023-05-14T04:45:37.433Z,96.30
2023-05-14T04:48:05.066Z,96.17
2023-05-14T04:50:32.386Z,96.58
2023-05-14T04:52:58.823Z,96.01
2023-05-14T04:55:25.307Z,96.93
2023-05-14T04:57:51.733Z,97.22
2023-05-14T05:00:19.260Z,97.33
2023-05-14T05:02:45.898Z,97.15
2023-05-14T05:05:12.442Z,97.02
2023-05-14T05:07:38.912Z,97.47
2023-05-14T05:10:06.116Z,97.58
2023-05-14T05:12:32.600Z,97.42
2023-05-14T05:14:59.054Z,97.05
2023-05-14T05:17:25.670Z,97.57
2023-05-14T05:19:52.709Z,97.22
2023-05-14T05:22:20.220Z,96.87
2023-05-14T05:24:49.696Z,96.62
2023-05-14T05:27:16.621Z,96.58
2023-05-14T05:29:44.297Z,96.44
2023-05-14T05:32:10.932Z,96.33
2023-05-14T05:34:37.500Z,96.36
2023-05-14T05:37:05.925Z,96.45
2023-05-14T05:39:35.000Z,96.24
2023-05-14T05:42:02.672Z,96.00
2023-05-14T05:44:29.247Z,95.89
2023-05-14T05:46:57.291Z,95.29
2023-05-14T05:49:25.121Z,95.56
2023-05-14T05:51:51.643Z,95.55
2023-05-14T05:54:18.109Z,95.96
2023-05-14T05:56:44.570Z,95.70
2023-05-14T05:59:11.171Z,94.77
2023-05-14T06:01:37.861Z,95.52
2023-05-14T06:04:06.390Z,95.44
2023-05-14T06:06:33.073Z,95.08
2023-05-14T06:08:59.712Z,94.39
2023-05-14T06:11:26.626Z,94.46
2023-05-14T06:13:53.659Z,94.08
2023-05-14T06:16:20.309Z,93.98
2023-05-14T06:18:47.063Z,94.49
2023-05-14T06:21:13.573Z,93.67
2023-05-14T06:23:40.518Z,94.65
2023-05-14T06:26:07.003Z,94.20
2023-05-14T06:28:33.827Z,92.58
2023-05-14T06:31:00.433Z,92.29
2023-05-14T06:33:31.110Z,92.55
2023-05-14T06:36:03.538Z,92.75
2023-05-14T06:38:30.270Z,93.59
2023-05-14T06:40:56.891Z,93.10
2023-05-14T06:43:23.372Z,93.57
2023-05-14T06:45:50.517Z,92.93
2023-05-14T06:48:21.403Z,92.91
2023-05-14T06:50:49.211Z,92.35
2023-05-14T06:53:16.181Z,92.15
2023-05-14T06:55:42.780Z,92.04
2023-05-14T06:58:09.841Z,92.80
2023-05-14T07:00:36.384Z,91.03
2023-05-14T07:03:02.935Z,90.52
2023-05-14T07:05:29.627Z,90.07
2023-05-14T07:07:56.137Z,90.52
2023-05-14T07:10:23.047Z,90.58
2023-05-14T07:12:49.793Z,89.71
2023-05-14T07:15:16.432Z,88.78
2023-05-14T07:17:43.019Z,88.02
2023-05-14T07:20:10.106Z,88.89
2023-05-14T07:22:36.631Z,87.73
2023-05-14T07:25:03.291Z,87.44
2023-05-14T07:27:29.827Z,87.24
2023-05-14T07:29:56.300Z,87.59
2023-05-14T07:32:25.024Z,86.47
2023-05-14T07:34:51.744Z,86.19
2023-05-14T07:37:18.319Z,85.76
2023-05-14T07:39:44.774Z,85.80
2023-05-14T07:42:15.166Z,85.65
2023-05-14T07:44:46.044Z,85.57
2023-05-14T07:47:12.571Z,85.89
2023-05-14T07:49:39.184Z,85.58
2023-05-14T07:52:05.639Z,85.82
2023-05-14T07:54:32.128Z,85.16
2023-05-14T07:56:58.665Z,83.50
2023-05-14T07:59:25.170Z,85.71
2023-05-14T08:01:51.814Z,85.35
2023-05-14T08:04:18.453Z,84.08
2023-05-14T08:06:44.989Z,82.29
2023-05-14T08:09:11.533Z,80.50
2023-05-14T08:11:39.143Z,83.30
2023-05-14T08:14:05.790Z,80.05
2023-05-14T08:16:32.319Z,81.12
2023-05-14T08:18:58.865Z,80.35
2023-05-14T08:21:25.411Z,80.20
2023-05-14T08:23:52.006Z,82.15
2023-05-14T08:26:18.452Z,79.45
2023-05-14T08:28:44.909Z,80.42
2023-05-14T08:31:11.573Z,82.38
2023-05-14T08:33:38.163Z,80.05
2023-05-14T08:36:04.985Z,80.69
2023-05-14T08:38:31.494Z,78.26
2023-05-14T08:40:58.846Z,80.11
2023-05-14T08:43:30.744Z,80.06
2023-05-14T08:46:05.779Z,79.14
2023-05-14T08:48:34.137Z,81.10
2023-05-14T08:51:02.028Z,79.89
2023-05-14T08:53:28.566Z,79.20
2023-05-14T08:55:55.066Z,79.05
2023-05-14T08:58:21.700Z,75.87
2023-05-14T09:00:48.344Z,77.18
2023-05-14T09:03:15.972Z,76.11
2023-05-14T09:05:43.200Z,75.14
2023-05-14T09:08:09.764Z,77.94
2023-05-14T09:10:36.246Z,78.09
2023-05-14T09:13:02.720Z,73.98
2023-05-14T09:15:30.414Z,75.00
2023-05-14T09:17:57.076Z,73.43
2023-05-14T09:20:25.127Z,72.99
2023-05-14T09:22:54.881Z,74.12
2023-05-14T09:25:27.496Z,73.00
2023-05-14T09:27:56.684Z,73.08
2023-05-14T09:30:25.466Z,72.76
2023-05-14T09:32:54.713Z,72.28
2023-05-14T09:35:24.922Z,70.17
2023-05-14T09:37:53.548Z,70.47
2023-05-14T09:40:22.400Z,71.44
2023-05-14T09:42:49.676Z,68.55
2023-05-14T09:45:16.840Z,69.33
2023-05-14T09:47:45.000Z,67.48
2023-05-14T09:50:12.241Z,68.78
2023-05-14T09:52:39.062Z,67.20
2023-05-14T09:55:06.391Z,67.34
2023-05-14T09:57:33.526Z,68.04
2023-05-14T10:00:00.176Z,68.01
2023-05-14T10:02:37.408Z,68.74
2023-05-14T10:05:08.320Z,65.66
2023-05-14T10:07:44.676Z,66.79
2023-05-14T10:10:16.912Z,68.63
2023-05-14T10:12:52.480Z,65.76
2023-05-14T10:15:33.721Z,66.62
2023-05-14T10:18:07.995Z,64.81
2023-05-14T10:20:36.622Z,63.07
2023-05-14T10:23:03.355Z,64.76
2023-05-14T10:25:30.126Z,65.17
2023-05-14T10:27:57.044Z,66.35
2023-05-14T10:30:24.102Z,65.29
2023-05-14T10:33:07.196Z,66.77
2023-05-14T10:35:51.986Z,65.66
2023-05-14T10:38:23.115Z,65.21
2023-05-14T10:40:51.617Z,63.70
2023-05-14T10:43:20.283Z,66.10
2023-05-14T10:45:47.075Z,65.45
2023-05-14T10:48:14.347Z,64.22
2023-05-14T10:50:41.975Z,65.79
2023-05-14T10:53:12.824Z,66.91
2023-05-14T10:55:39.523Z,65.09
2023-05-14T10:58:06.260Z,64.36
2023-05-14T11:00:35.684Z,64.65
2023-05-14T11:03:05.327Z,60.82
2023-05-14T11:05:33.659Z,62.99
2023-05-14T11:08:04.131Z,61.93
2023-05-14T11:10:30.958Z,62.16
2023-05-14T11:12:58.158Z,63.45
2023-05-14T11:15:26.187Z,63.39
2023-05-14T11:17:53.964Z,63.91
2023-05-14T11:20:21.295Z,62.40
2023-05-14T11:22:49.061Z,63.22
2023-05-14T11:25:15.652Z,61.22
2023-05-14T11:27:44.818Z,62.45
2023-05-14T11:30:19.346Z,61.67
2023-05-14T11:32:47.468Z,60.52
2023-05-14T11:35:15.282Z,59.62
2023-05-14T11:37:42.296Z,60.19
2023-05-14T11:40:18.997Z,59.45
2023-05-14T11:42:45.978Z,56.53
2023-05-14T11:45:13.752Z,59.56
2023-05-14T11:47:43.212Z,57.58
2023-05-14T11:50:11.122Z,58.95
2023-05-14T11:52:40.412Z,57.78
2023-05-14T11:55:11.384Z,57.60
2023-05-14T11:57:37.897Z,57.82
2023-05-14T12:00:09.221Z,55.93
2023-05-14T12:02:36.322Z,58.36
2023-05-14T12:05:03.127Z,57.62
2023-05-14T12:07:30.592Z,56.47
2023-05-14T12:10:01.520Z,57.12
2023-05-14T12:12:28.000Z,56.22
2023-05-14T12:14:54.464Z,57.35
2023-05-14T12:17:22.831Z,56.96
2023-05-14T12:19:52.164Z,56.90
2023-05-14T12:22:20.997Z,54.49
2023-05-14T12:24:55.173Z,55.55
2023-05-14T12:27:24.167Z,54.88
2023-05-14T12:32:26.719Z,55.37
2023-05-14T12:34:53.199Z,51.91
2023-05-14T12:37:19.858Z,51.20
2023-05-14T12:39:46.393Z,48.74
2023-05-14T12:42:14.309Z,49.95
2023-05-14T12:44:40.816Z,51.10
2023-05-14T12:47:07.390Z,52.06
2023-05-14T12:49:34.136Z,52.45
2023-05-14T12:52:19.479Z,52.43
2023-05-14T12:54:47.038Z,53.64
2023-05-14T12:57:13.794Z,51.30
2023-05-14T12:59:40.885Z,51.07
2023-05-14T13:02:07.624Z,51.09
2023-05-14T13:04:34.159Z,51.20
2023-05-14T13:07:00.710Z,52.60
2023-05-14T13:09:27.854Z,52.05
2023-05-14T13:11:54.549Z,51.92
2023-05-14T13:14:21.051Z,52.61
2023-05-14T13:16:47.583Z,50.49
2023-05-14T13:19:14.106Z,49.68
2023-05-14T13:21:40.616Z,52.13
2023-05-14T13:24:07.236Z,53.95
2023-05-14T13:26:33.751Z,54.58
2023-05-14T13:29:00.380Z,52.16
2023-05-14T13:31:26.936Z,51.43
2023-05-14T13:33:53.573Z,48.50
2023-05-14T13:36:20.128Z,49.44
2023-05-14T13:38:46.676Z,51.37
2023-05-14T13:41:13.173Z,50.35
2023-05-14T13:43:39.828Z,48.97
2023-05-14T13:46:06.850Z,47.36
2023-05-14T13:48:34.228Z,48.92
2023-05-14T13:51:00.713Z,50.82
2023-05-14T13:53:27.295Z,49.35
2023-05-14T13:55:58.302Z,48.60
2023-05-14T13:58:25.511Z,51.03
2023-05-14T14:00:52.785Z,47.74
2023-05-14T14:03:19.423Z,51.53
2023-05-14T14:05:46.083Z,48.32
2023-05-14T14:08:22.720Z,46.59
2023-05-14T14:10:50.727Z,48.03
2023-05-14T14:13:17.210Z,47.02
2023-05-14T14:15:44.333Z,47.70
2023-05-14T14:18:11.018Z,49.70
2023-05-14T14:20:37.562Z,49.67
2023-05-14T14:23:04.242Z,47.21
2023-05-14T14:25:30.678Z,48.78
2023-05-14T14:27:57.138Z,49.91
2023-05-14T14:30:23.622Z,49.56
2023-05-14T14:32:50.662Z,51.34
2023-05-14T14:35:18.308Z,51.46
2023-05-14T14:37:49.097Z,52.75
2023-05-14T14:40:16.680Z,52.00
2023-05-14T14:42:43.426Z,50.59
2023-05-14T14:45:10.729Z,51.84
2023-05-14T14:47:37.359Z,51.04
2023-05-14T14:50:04.423Z,51.49
2023-05-14T14:52:31.228Z,52.89
2023-05-14T14:54:57.822Z,54.11
2023-05-14T14:57:24.341Z,53.10
2023-05-14T14:59:50.848Z,52.44
2023-05-14T15:02:17.433Z,53.47
2023-05-14T15:04:43.905Z,52.76
2023-05-14T15:07:10.415Z,52.74
2023-05-14T15:09:36.918Z,53.64
2023-05-14T15:12:03.626Z,52.29
2023-05-14T15:14:30.074Z,52.57
2023-05-14T15:16:56.631Z,52.74
2023-05-14T15:19:23.133Z,53.76
2023-05-14T15:21:50.088Z,52.60
2023-05-14T15:24:16.522Z,53.69
2023-05-14T15:26:43.032Z,54.98
2023-05-14T15:29:09.596Z,54.06
2023-05-14T15:31:36.266Z,54.63
2023-05-14T15:34:03.607Z,55.53
2023-05-14T15:36:30.083Z,56.17
2023-05-14T15:38:56.592Z,56.51
2023-05-14T15:41:26.125Z,56.67
2023-05-14T15:43:52.545Z,56.62
2023-05-14T15:46:19.054Z,57.02
2023-05-14T15:48:45.774Z,57.67
2023-05-14T15:51:12.736Z,56.97
2023-05-14T15:53:39.299Z,57.57
2023-05-14T15:56:06.105Z,57.62
2023-05-14T15:58:32.555Z,58.78
2023-05-14T16:00:59.080Z,58.67
2023-05-14T16:03:25.740Z,58.29
2023-05-14T16:05:52.357Z,59.42
2023-05-14T16:08:18.899Z,57.34
2023-05-14T16:10:45.473Z,58.02
2023-05-14T16:13:11.914Z,58.32
2023-05-14T16:15:39.800Z,60.09
2023-05-14T16:18:06.555Z,59.10
2023-05-14T16:20:33.081Z,59.82
2023-05-14T16:22:59.549Z,59.11
2023-05-14T16:25:26.085Z,59.34
2023-05-14T16:27:52.722Z,60.00
2023-05-14T16:30:19.223Z,57.69
2023-05-14T16:32:49.337Z,59.08
2023-05-14T16:35:16.776Z,57.35
2023-05-14T16:37:43.294Z,56.62
2023-05-14T16:40:11.610Z,57.82
2023-05-14T16:42:38.665Z,58.62
2023-05-14T16:45:05.468Z,59.35
2023-05-14T16:47:32.005Z,60.24
2023-05-14T16:49:58.644Z,59.57
2023-05-14T16:52:25.178Z,59.96
2023-05-14T16:54:51.687Z,61.16
2023-05-14T16:57:18.212Z,59.66
2023-05-14T16:59:44.688Z,60.26
2023-05-14T17:02:11.144Z,61.54
2023-05-14T17:04:40.934Z,59.97
2023-05-14T17:07:07.811Z,61.37
2023-05-14T17:09:34.353Z,60.52
2023-05-14T17:12:01.135Z,61.69
2023-05-14T17:14:27.599Z,62.28
2023-05-14T17:16:54.370Z,62.24
2023-05-14T17:19:21.041Z,60.44
2023-05-14T17:21:47.537Z,61.97
2023-05-14T17:24:13.989Z,60.59
2023-05-14T17:26:40.473Z,61.35
2023-05-14T17:29:06.981Z,59.55
2023-05-14T17:31:33.610Z,61.50
2023-05-14T17:34:00.748Z,60.11
2023-05-14T17:36:28.591Z,60.64
2023-05-14T17:38:55.333Z,61.65
2023-05-14T17:41:21.862Z,61.84
2023-05-14T17:43:48.497Z,62.60
2023-05-14T17:46:15.039Z,64.07
2023-05-14T17:48:41.515Z,65.49
2023-05-14T17:51:07.991Z,68.28
2023-05-14T17:53:34.512Z,69.93
2023-05-14T17:56:01.047Z,70.88
2023-05-14T17:58:27.652Z,72.05
2023-05-14T18:00:54.139Z,71.91
2023-05-14T18:03:20.682Z,72.61
2023-05-14T18:05:47.386Z,73.14
2023-05-14T18:08:14.571Z,73.30
2023-05-14T18:10:41.041Z,73.67
2023-05-14T18:13:07.536Z,74.23
2023-05-14T18:15:36.041Z,73.50
2023-05-14T18:18:02.665Z,73.68
2023-05-14T18:20:29.176Z,73.88
2023-05-14T18:22:55.635Z,74.26
2023-05-14T18:25:22.355Z,75.12
2023-05-14T18:27:49.168Z,75.63
2023-05-14T18:30:16.063Z,75.85
2023-05-14T18:32:44.115Z,75.57
2023-05-14T18:35:11.583Z,77.01
2023-05-14T18:37:38.033Z,76.81
2023-05-14T18:40:06.943Z,77.56
2023-05-14T18:42:33.975Z,77.06
2023-05-14T18:45:00.606Z,78.38
2023-05-14T18:47:27.287Z,79.13
2023-05-14T18:49:55.779Z,80.01
2023-05-14T18:52:22.922Z,80.34
2023-05-14T18:54:50.841Z,80.66
2023-05-14T18:57:17.525Z,81.61
2023-05-14T18:59:44.024Z,81.60
2023-05-14T19:02:10.895Z,81.77
2023-05-14T19:04:50.660Z,81.85
2023-05-14T19:07:18.873Z,82.72
2023-05-14T19:09:45.684Z,82.86
2023-05-14T19:12:12.623Z,81.98
2023-05-14T19:14:39.121Z,82.33
2023-05-14T19:17:05.787Z,82.91
2023-05-14T19:19:32.650Z,82.57
2023-05-14T19:21:59.151Z,82.20
2023-05-14T19:24:25.828Z,82.47
2023-05-14T19:26:52.687Z,82.11
2023-05-14T19:29:19.176Z,82.40
2023-05-14T19:31:45.664Z,82.40
2023-05-14T19:34:12.365Z,82.61
2023-05-14T19:36:38.848Z,82.67
2023-05-14T19:39:05.299Z,83.57
2023-05-14T19:41:31.797Z,83.80
2023-05-14T19:43:58.248Z,83.75
2023-05-14T19:46:24.796Z,83.68
2023-05-14T19:48:51.364Z,83.56
2023-05-14T19:51:18.090Z,83.16
2023-05-14T19:53:45.186Z,83.57
2023-05-14T19:56:11.644Z,83.87
2023-05-14T19:58:38.189Z,84.97
2023-05-14T20:01:04.771Z,83.87
2023-05-14T20:03:32.180Z,84.10
2023-05-14T20:05:59.038Z,84.80
2023-05-14T20:08:25.578Z,84.43
2023-05-14T20:10:52.348Z,85.32
2023-05-14T20:13:18.852Z,85.43
2023-05-14T20:15:45.393Z,85.39
2023-05-14T20:18:12.045Z,85.92
2023-05-14T20:20:39.952Z,86.16
2023-05-14T20:23:06.500Z,86.27
2023-05-14T20:25:33.257Z,86.15
2023-05-14T20:28:03.084Z,85.96
2023-05-14T20:30:29.607Z,86.45
2023-05-14T20:32:56.434Z,86.67
2023-05-14T20:35:23.243Z,86.52
2023-05-14T20:37:49.992Z,85.64
2023-05-14T20:40:16.691Z,85.92
2023-05-14T20:42:43.283Z,85.84
2023-05-14T20:45:10.408Z,85.84
2023-05-14T20:47:37.011Z,85.87
2023-05-14T20:50:04.591Z,85.99
2023-05-14T20:52:31.202Z,86.49
2023-05-14T20:54:59.419Z,86.19
2023-05-14T20:57:28.214Z,86.45
2023-05-14T20:59:54.734Z,86.86
2023-05-14T21:02:21.499Z,86.43
2023-05-14T21:04:48.220Z,87.10
2023-05-14T21:07:14.828Z,86.89
2023-05-14T21:09:41.449Z,86.54
2023-05-14T21:12:08.319Z,86.43
2023-05-14T21:14:34.882Z,86.95
2023-05-14T21:17:01.431Z,86.68
2023-05-14T21:19:27.897Z,86.50
2023-05-14T21:21:54.377Z,86.57
2023-05-14T21:24:20.852Z,87.01
2023-05-14T21:26:47.378Z,87.41
2023-05-14T21:29:13.900Z,87.05
2023-05-14T21:31:40.773Z,87.55
2023-05-14T21:34:07.278Z,88.10
2023-05-14T21:36:33.854Z,87.97
2023-05-14T21:39:00.491Z,88.10
2023-05-14T21:41:27.008Z,88.30
2023-05-14T21:43:53.526Z,88.12
2023-05-14T21:46:20.119Z,89.26
2023-05-14T21:48:46.707Z,89.28
2023-05-14T21:51:13.353Z,89.94
2023-05-14T21:53:39.829Z,90.29
2023-05-14T21:56:07.118Z,90.31
2023-05-14T21:58:33.854Z,90.16
2023-05-14T22:01:00.411Z,89.99
2023-05-14T22:03:26.933Z,89.86
2023-05-14T22:05:53.522Z,90.41
2023-05-14T22:08:20.046Z,90.54
2023-05-14T22:10:47.128Z,90.41
2023-05-14T22:13:13.677Z,90.24
2023-05-14T22:15:40.805Z,90.53
2023-05-14T22:18:07.402Z,90.57
2023-05-14T22:20:33.941Z,90.90
2023-05-14T22:23:00.527Z,91.49
2023-05-14T22:25:27.315Z,91.66
2023-05-14T22:27:54.092Z,91.63
2023-05-14T22:30:21.157Z,91.42
2023-05-14T22:32:47.757Z,91.59
2023-05-14T22:35:14.453Z,91.57
2023-05-14T22:37:40.986Z,91.24
2023-05-14T22:40:08.866Z,91.27
2023-05-14T22:42:35.632Z,91.76
2023-05-14T22:45:02.110Z,91.61
2023-05-14T22:47:28.801Z,91.90
2023-05-14T22:49:55.294Z,92.13
2023-05-14T22:52:21.866Z,91.94
2023-05-14T22:54:51.001Z,92.31
2023-05-14T22:57:18.027Z,92.32
2023-05-14T22:59:44.484Z,92.07
2023-05-14T23:02:11.215Z,92.22
2023-05-14T23:04:37.816Z,92.30
2023-05-14T23:07:04.544Z,92.46
2023-05-14T23:09:30.993Z,92.61
2023-05-14T23:11:57.461Z,92.85
2023-05-14T23:14:23.909Z,93.31
2023-05-14T23:16:50.479Z,93.02
2023-05-14T23:19:17.058Z,93.03
2023-05-14T23:21:43.662Z,92.50
2023-05-14T23:24:10.183Z,92.62
2023-05-14T23:26:36.747Z,92.70
2023-05-14T23:29:03.257Z,93.32
2023-05-14T23:31:29.864Z,93.99
2023-05-14T23:33:57.045Z,94.11
2023-05-14T23:36:23.862Z,94.51
2023-05-14T23:38:50.558Z,94.49
2023-05-14T23:41:17.012Z,94.84
2023-05-14T23:43:43.534Z,94.70
2023-05-14T23:46:10.341Z,95.04
2023-05-14T23:48:37.052Z,95.59
2023-05-14T23:51:03.616Z,95.89
2023-05-14T23:53:30.157Z,95.37
2023-05-14T23:55:56.690Z,95.76
2023-05-14T23:58:23.237Z,95.77
